createdAt,value
2022-11-07T00:02:30.991Z,11.18
2022-11-07T00:05:42.334Z,10.32
2022-11-07T00:08:34.293Z,10.75
2022-11-07T00:11:30.101Z,11.30
2022-11-07T00:14:07.500Z,11.43
2022-11-07T00:17:19.754Z,10.25
2022-11-07T00:20:10.106Z,9.98
2022-11-07T00:23:03.370Z,9.65
2022-11-07T00:25:52.052Z,9.13
2022-11-07T00:28:57.012Z,9.32
2022-11-07T00:31:46.756Z,8.65
2022-11-07T00:34:43.516Z,8.75
2022-11-07T00:37:33.550Z,8.23
2022-11-07T00:40:29.987Z,9.00
2022-11-07T00:43:19.581Z,9.27
2022-11-07T00:46:30.202Z,9.95
2022-11-07T00:49:19.458Z,10.20
2022-11-07T00:52:11.308Z,10.10
2022-11-07T00:55:21.380Z,10.05
2022-11-07T00:58:13.905Z,10.07
2022-11-07T01:01:10.013Z,10.18
2022-11-07T01:04:16.464Z,10.27
2022-11-07T01:07:23.578Z,10.27
2022-11-07T01:10:12.269Z,11.50
2022-11-07T01:12:45.922Z,10.45
2022-11-07T01:15:36.253Z,9.85
2022-11-07T01:18:32.720Z,9.52
2022-11-07T01:21:21.892Z,8.88
2022-11-07T01:24:31.015Z,9.35
2022-11-07T01:27:03.382Z,8.15
2022-11-07T01:30:07.795Z,8.85
2022-11-07T01:32:57.379Z,9.63
2022-11-07T01:35:34.876Z,9.27
2022-11-07T01:38:24.665Z,10.95
2022-11-07T01:41:38.535Z,11.40
2022-11-07T01:44:28.052Z,12.27
2022-11-07T01:47:40.142Z,10.38
2022-11-07T01:50:19.188Z,11.30
2022-11-07T01:53:14.037Z,11.50
2022-11-07T01:56:03.830Z,10.32
2022-11-07T01:58:55.483Z,11.27
2022-11-07T02:01:43.351Z,11.32
2022-11-07T02:04:32.175Z,10.82
2022-11-07T02:07:22.469Z,10.07
2022-11-07T02:10:30.640Z,9.55
2022-11-07T02:13:24.220Z,10.20
2022-11-07T02:54:27.343Z,9.80
2022-11-07T02:57:16.379Z,10.25
2022-11-07T03:00:05.443Z,12.23
2022-11-07T03:02:53.997Z,10.77
2022-11-07T03:05:41.941Z,11.10
2022-11-07T03:08:34.851Z,11.32
2022-11-07T03:11:22.469Z,12.93
2022-11-07T03:14:24.387Z,12.63
2022-11-07T03:17:12.558Z,13.43
2022-11-07T03:20:05.901Z,12.85
2022-11-07T03:22:38.702Z,11.65
2022-11-07T03:25:26.804Z,11.38
2022-11-07T03:28:02.863Z,12.02
2022-11-07T03:31:10.605Z,12.15
2022-11-07T03:33:58.271Z,12.27
2022-11-07T03:37:06.351Z,12.25
2022-11-07T03:39:53.963Z,11.02
2022-11-07T03:42:23.714Z,11.65
2022-11-07T03:45:13.285Z,13.27
2022-11-07T03:47:46.906Z,10.48
2022-11-07T03:50:19.405Z,12.10
2022-11-07T03:53:19.352Z,10.68
2022-11-07T03:56:08.110Z,11.02
2022-11-07T03:59:04.077Z,12.15
2022-11-07T04:01:49.188Z,10.93
2022-11-07T04:04:46.016Z,10.95
2022-11-07T04:07:33.899Z,10.80
2022-11-07T04:10:05.879Z,10.38
2022-11-07T04:13:12.628Z,10.57
2022-11-07T04:16:20.759Z,10.45
2022-11-07T04:18:48.769Z,14.23
2022-11-07T04:21:36.930Z,13.15
2022-11-07T04:24:05.384Z,12.35
2022-11-07T04:27:00.953Z,11.00
2022-11-07T04:29:44.866Z,10.63
2022-11-07T04:32:43.118Z,10.27
2022-11-07T04:35:11.486Z,10.73
2022-11-07T04:38:15.573Z,11.27
2022-11-07T04:40:43.986Z,10.93
2022-11-07T04:43:32.189Z,12.55
2022-11-07T04:46:04.378Z,11.73
2022-11-07T04:48:36.661Z,12.20
2022-11-07T04:51:05.614Z,14.48
2022-11-07T04:53:54.451Z,13.43
2022-11-07T04:56:42.398Z,12.90
2022-11-07T04:59:46.102Z,13.50
2022-11-07T05:02:33.594Z,14.93
2022-11-07T05:05:26.634Z,13.68
2022-11-07T05:08:05.112Z,13.00
2022-11-07T05:11:12.895Z,13.20
2022-11-07T05:13:41.728Z,13.70
2022-11-07T05:16:51.169Z,13.20
2022-11-07T05:19:27.754Z,15.65
2022-11-07T05:22:15.814Z,14.82
2022-11-07T05:25:02.684Z,13.05
2022-11-07T05:27:48.627Z,13.15
2022-11-07T05:30:16.537Z,13.62
2022-11-07T05:33:04.936Z,13.52
2022-11-07T05:35:41.469Z,13.98
2022-11-07T05:38:19.276Z,14.63
2022-11-07T05:40:56.519Z,14.07
2022-11-07T05:43:49.271Z,12.63
2022-11-07T05:46:17.988Z,11.80
2022-11-07T05:49:26.410Z,13.38
2022-11-07T05:51:54.564Z,12.68
2022-11-07T05:59:13.598Z,14.02
2022-11-07T06:16:17.647Z,13.52
2022-11-07T06:19:32.786Z,13.23
2022-11-07T06:22:12.993Z,13.68
2022-11-07T06:24:48.435Z,14.40
2022-11-07T06:27:28.688Z,14.63
2022-11-07T06:30:06.976Z,15.95
2022-11-07T06:32:47.841Z,16.15
2022-11-07T06:35:27.228Z,16.95
2022-11-07T06:38:07.570Z,17.35
2022-11-07T06:40:45.308Z,15.85
2022-11-07T06:43:23.814Z,16.67
2022-11-07T06:45:55.094Z,16.15
2022-11-07T06:48:35.292Z,16.52
2022-11-07T06:51:22.367Z,15.63
2022-11-07T06:54:18.040Z,15.82
2022-11-07T06:59:38.051Z,14.85
2022-11-07T07:02:06.198Z,15.52
2022-11-07T07:04:35.092Z,15.90
2022-11-07T07:07:04.125Z,14.93
2022-11-07T07:09:33.541Z,15.02
2022-11-07T07:12:01.408Z,14.65
2022-11-07T07:14:29.646Z,15.07
2022-11-07T07:17:01.221Z,15.27
2022-11-07T07:19:31.119Z,15.70
2022-11-07T07:21:58.828Z,19.35
2022-11-07T07:24:26.970Z,16.77
2022-11-07T07:26:55.136Z,16.40
2022-11-07T07:29:23.559Z,18.37
2022-11-07T07:31:51.239Z,16.55
2022-11-07T07:34:19.271Z,16.00
2022-11-07T07:36:47.101Z,16.42
2022-11-07T07:39:14.902Z,15.30
2022-11-07T07:41:44.775Z,15.88
2022-11-07T07:44:19.546Z,14.40
2022-11-07T07:46:48.108Z,16.33
2022-11-07T07:49:16.454Z,14.50
2022-11-07T07:51:44.226Z,15.88
2022-11-07T07:54:12.963Z,15.13
2022-11-07T07:56:41.192Z,15.98
2022-11-07T07:59:09.521Z,14.85
2022-11-07T08:01:39.038Z,14.50
2022-11-07T08:04:11.939Z,14.35
2022-11-07T08:06:40.287Z,14.95
2022-11-07T08:09:08.535Z,14.52
2022-11-07T08:11:36.806Z,14.43
2022-11-07T08:14:05.462Z,14.77
2022-11-07T08:16:34.331Z,14.00
2022-11-07T08:19:02.545Z,13.45
2022-11-07T08:21:32.100Z,13.13
2022-11-07T08:24:01.063Z,14.40
2022-11-07T08:26:28.675Z,12.88
2022-11-07T08:28:56.459Z,12.60
